createdAt,value
2017-02-03T00:00:33.098Z,0
2017-02-03T00:01:46.770Z,0
2017-02-03T00:03:00.492Z,0
2017-02-03T00:04:14.217Z,0
2017-02-03T00:05:27.924Z,0
2017-02-03T00:06:41.613Z,0
2017-02-03T00:07:55.301Z,0
2017-02-03T00:09:08.983Z,0
2017-02-03T00:10:22.700Z,0
2017-02-03T00:11:35.790Z,0
2017-02-03T00:12:49.447Z,0
2017-02-03T00:14:03.121Z,0
2017-02-03T00:15:16.235Z,0
2017-02-03T00:16:29.330Z,0
2017-02-03T00:17:42.983Z,0
2017-02-03T00:18:57.001Z,0
2017-02-03T00:20:10.722Z,0
2017-02-03T00:21:23.856Z,0
2017-02-03T00:22:37.523Z,0
2017-02-03T00:23:51.191Z,0
2017-02-03T00:25:04.870Z,0
2017-02-03T00:26:17.944Z,0
2017-02-03T00:27:31.624Z,0
2017-02-03T00:28:45.321Z,0
2017-02-03T00:29:59.050Z,0
2017-02-03T00:31:12.761Z,0
2017-02-03T00:32:25.835Z,0
2017-02-03T00:33:39.557Z,0
2017-02-03T00:34:53.259Z,0
2017-02-03T00:36:06.933Z,0
2017-02-03T00:37:19.992Z,0
2017-02-03T00:38:33.708Z,0
2017-02-03T00:39:47.398Z,0
2017-02-03T00:41:00.486Z,0
2017-02-03T00:42:14.180Z,0
2017-02-03T00:43:27.875Z,0
2017-02-03T00:44:41.542Z,0
2017-02-03T00:45:54.023Z,0
2017-02-03T00:47:07.719Z,0
2017-02-03T00:48:21.441Z,0
2017-02-03T00:49:35.161Z,0
2017-02-03T00:50:48.834Z,0
2017-02-03T00:52:02.502Z,0
2017-02-03T00:53:16.174Z,0
2017-02-03T00:54:29.821Z,0
2017-02-03T00:55:43.511Z,0
2017-02-03T00:56:56.591Z,0
2017-02-03T00:58:10.269Z,0
2017-02-03T00:59:23.932Z,0
2017-02-03T01:00:37.681Z,0
2017-02-03T01:01:51.383Z,0
2017-02-03T01:03:05.058Z,0
2017-02-03T01:04:18.761Z,0
2017-02-03T01:05:32.449Z,0
2017-02-03T01:06:46.172Z,0
2017-02-03T01:07:59.834Z,0
2017-02-03T01:09:13.540Z,0
2017-02-03T01:10:27.185Z,0
2017-02-03T01:11:40.267Z,0
2017-02-03T01:12:54.010Z,0
2017-02-03T01:14:07.708Z,0
2017-02-03T01:15:20.786Z,0
2017-02-03T01:16:34.437Z,0
2017-02-03T01:17:48.128Z,0
2017-02-03T01:19:01.221Z,0
2017-02-03T01:20:14.319Z,0
2017-02-03T01:21:27.966Z,0
2017-02-03T01:22:41.654Z,0
2017-02-03T01:23:55.358Z,0
2017-02-03T01:25:09.026Z,0
2017-02-03T01:26:22.728Z,0
2017-02-03T01:27:36.403Z,0
2017-02-03T01:28:50.076Z,0
2017-02-03T01:30:03.789Z,0
2017-02-03T01:31:17.519Z,0
2017-02-03T01:32:31.229Z,0
2017-02-03T01:33:44.935Z,0
2017-02-03T01:34:58.595Z,0
2017-02-03T01:36:12.266Z,0
2017-02-03T01:37:25.954Z,0
2017-02-03T01:38:39.007Z,0
2017-02-03T01:39:52.701Z,0
2017-02-03T01:41:06.449Z,0
2017-02-03T01:42:20.165Z,0
2017-02-03T01:43:33.850Z,0
2017-02-03T01:44:47.535Z,0
2017-02-03T01:46:01.252Z,0
2017-02-03T01:47:14.945Z,0
2017-02-03T01:48:28.672Z,0
2017-02-03T01:49:42.371Z,0
2017-02-03T01:50:56.079Z,0
2017-02-03T01:52:09.765Z,0
2017-02-03T01:53:22.843Z,0
2017-02-03T01:54:36.571Z,0
2017-02-03T01:55:50.278Z,0
2017-02-03T01:57:03.944Z,0
2017-02-03T01:58:17.638Z,0
2017-02-03T01:59:31.368Z,0
2017-02-03T02:00:45.068Z,0
2017-02-03T02:01:58.791Z,0
2017-02-03T02:03:12.481Z,0
2017-02-03T02:04:26.193Z,0
2017-02-03T02:05:39.892Z,0
2017-02-03T02:06:53.612Z,0
2017-02-03T02:08:07.310Z,0
2017-02-03T02:09:21.482Z,0
2017-02-03T02:10:35.115Z,0
2017-02-03T02:11:48.799Z,0
2017-02-03T02:13:01.874Z,0
2017-02-03T02:14:15.532Z,0
2017-02-03T02:15:28.601Z,0
2017-02-03T02:16:42.309Z,0
2017-02-03T02:17:55.983Z,0
2017-02-03T02:19:09.078Z,0
2017-02-03T02:20:22.760Z,0
2017-02-03T02:21:35.851Z,0
2017-02-03T02:22:49.517Z,0
2017-02-03T02:24:03.177Z,0
2017-02-03T02:25:16.830Z,0
2017-02-03T02:26:30.531Z,0
2017-02-03T02:27:44.217Z,0
2017-02-03T02:28:57.919Z,0
2017-02-03T02:30:11.027Z,0
2017-02-03T02:31:24.682Z,0
2017-02-03T02:32:38.376Z,0
2017-02-03T02:33:52.101Z,0
2017-02-03T02:35:05.789Z,0
2017-02-03T02:36:19.427Z,0
2017-02-03T02:37:33.099Z,0
2017-02-03T02:38:46.758Z,0
2017-02-03T02:40:00.433Z,0
2017-02-03T02:41:14.092Z,0
2017-02-03T02:42:27.769Z,0
2017-02-03T02:43:40.847Z,0
2017-02-03T02:44:54.502Z,0
2017-02-03T02:46:08.218Z,0
2017-02-03T02:47:21.474Z,0
2017-02-03T02:48:35.171Z,0
2017-02-03T02:49:48.812Z,0
2017-02-03T02:51:02.529Z,0
2017-02-03T02:52:16.244Z,0
2017-02-03T02:53:29.940Z,0
2017-02-03T02:54:43.607Z,0
2017-02-03T02:55:57.295Z,0
2017-02-03T02:57:11.020Z,0
2017-02-03T02:58:24.706Z,0
2017-02-03T02:59:38.396Z,0
2017-02-03T03:00:52.062Z,0
2017-02-03T03:02:05.734Z,0
2017-02-03T03:03:19.404Z,0
2017-02-03T03:04:33.086Z,0
2017-02-03T03:05:46.172Z,0
2017-02-03T03:06:59.857Z,0
2017-02-03T03:08:13.547Z,0
2017-02-03T03:09:27.210Z,0
2017-02-03T03:10:40.873Z,0
2017-02-03T03:11:54.565Z,0
2017-02-03T03:13:08.251Z,0
2017-02-03T03:14:21.930Z,0
2017-02-03T03:15:35.594Z,0
2017-02-03T03:16:49.280Z,0
2017-02-03T03:18:02.346Z,0
2017-02-03T03:19:16.036Z,0
2017-02-03T03:20:29.703Z,0
2017-02-03T03:21:43.408Z,0
2017-02-03T03:22:57.099Z,0
2017-02-03T03:24:10.834Z,0
2017-02-03T03:25:24.560Z,0
2017-02-03T03:26:38.261Z,0
2017-02-03T03:27:51.965Z,0
2017-02-03T03:29:05.668Z,0
2017-02-03T03:30:19.336Z,0
2017-02-03T03:31:31.803Z,0
2017-02-03T03:32:45.494Z,0
2017-02-03T03:33:59.169Z,0
2017-02-03T03:35:12.868Z,0
2017-02-03T03:36:26.554Z,0
2017-02-03T03:37:39.623Z,0
2017-02-03T03:38:53.303Z,0
2017-02-03T03:40:06.404Z,0
2017-02-03T03:41:20.128Z,0
2017-02-03T03:42:33.828Z,0
2017-02-03T03:43:46.913Z,0
2017-02-03T03:45:00.563Z,0
2017-02-03T03:46:14.247Z,0
2017-02-03T03:47:27.910Z,0
2017-02-03T03:48:41.588Z,0
2017-02-03T03:49:55.259Z,0
2017-02-03T03:51:08.931Z,0
2017-02-03T03:52:22.610Z,0
2017-02-03T03:53:36.296Z,0
2017-02-03T03:54:50.027Z,0
2017-02-03T03:56:03.736Z,0
2017-02-03T03:57:16.839Z,0
2017-02-03T03:58:30.523Z,0
2017-02-03T03:59:44.200Z,0
2017-02-03T04:00:57.851Z,0
2017-02-03T04:02:10.916Z,0
2017-02-03T04:03:24.599Z,0
2017-02-03T04:04:38.276Z,0
2017-02-03T04:05:51.968Z,0
2017-02-03T04:07:05.680Z,0
2017-02-03T04:08:19.373Z,0
2017-02-03T04:09:33.100Z,0
2017-02-03T04:10:46.192Z,0
2017-02-03T04:11:59.851Z,0
2017-02-03T04:13:13.555Z,0
2017-02-03T04:14:27.225Z,0
2017-02-03T04:15:40.330Z,0
2017-02-03T04:16:54.030Z,0
2017-02-03T04:18:07.694Z,0
2017-02-03T04:19:20.180Z,0
2017-02-03T04:20:33.270Z,0
2017-02-03T04:21:46.963Z,0
2017-02-03T04:23:00.642Z,0
2017-02-03T04:24:14.292Z,0
2017-02-03T04:25:27.969Z,0
2017-02-03T04:26:41.687Z,0
2017-02-03T04:27:55.380Z,0
2017-02-03T04:29:08.454Z,0
2017-02-03T04:30:22.124Z,0
2017-02-03T04:31:35.819Z,0
2017-02-03T04:32:49.496Z,0
2017-02-03T04:34:03.202Z,0
2017-02-03T04:35:16.288Z,0
2017-02-03T04:36:28.791Z,0
2017-02-03T04:37:42.493Z,0
2017-02-03T04:38:56.171Z,0
2017-02-03T04:40:09.847Z,0
2017-02-03T04:41:23.496Z,0
2017-02-03T04:42:37.180Z,0
2017-02-03T04:43:50.859Z,0
2017-02-03T04:45:04.511Z,0
2017-02-03T04:46:18.200Z,0
2017-02-03T04:47:31.935Z,0
2017-02-03T04:48:45.655Z,0
2017-02-03T04:49:58.720Z,0
2017-02-03T04:51:12.378Z,0
2017-02-03T04:52:26.063Z,0
2017-02-03T04:53:39.778Z,0
2017-02-03T04:54:53.479Z,0
2017-02-03T04:56:07.197Z,0
2017-02-03T04:57:20.875Z,0
2017-02-03T04:58:34.541Z,0
2017-02-03T04:59:48.219Z,0
2017-02-03T05:01:02.592Z,0
2017-02-03T05:02:16.328Z,0
2017-02-03T05:03:30.688Z,0
2017-02-03T05:04:45.103Z,0
2017-02-03T05:05:59.536Z,0
2017-02-03T05:07:13.305Z,0
2017-02-03T05:08:27.700Z,0
2017-02-03T05:09:42.113Z,0
2017-02-03T05:10:56.488Z,0
2017-02-03T05:12:10.886Z,0
2017-02-03T05:13:25.314Z,0
2017-02-03T05:14:39.697Z,0
2017-02-03T05:15:54.065Z,0
2017-02-03T05:17:08.441Z,0
2017-02-03T05:18:22.183Z,0
2017-02-03T05:19:36.542Z,0
2017-02-03T05:20:50.897Z,0
2017-02-03T05:22:05.232Z,0
2017-02-03T05:23:19.646Z,0
2017-02-03T05:24:34.046Z,0
2017-02-03T05:25:48.394Z,0
2017-02-03T05:27:02.140Z,0
2017-02-03T05:28:16.496Z,0
2017-02-03T05:29:30.227Z,0
2017-02-03T05:30:43.913Z,0
2017-02-03T05:31:58.304Z,0
2017-02-03T05:33:12.671Z,0
2017-02-03T05:34:27.035Z,0
2017-02-03T05:35:40.759Z,0
2017-02-03T05:36:55.115Z,0
2017-02-03T05:38:09.484Z,0
2017-02-03T05:39:23.846Z,0
2017-02-03T05:40:38.209Z,0
2017-02-03T05:41:52.580Z,0
2017-02-03T05:43:06.990Z,0
2017-02-03T05:44:20.701Z,0
2017-02-03T05:45:35.094Z,0
2017-02-03T05:46:49.468Z,0
2017-02-03T05:48:03.860Z,0
2017-02-03T05:49:18.240Z,0
2017-02-03T05:50:31.955Z,0
2017-02-03T05:51:46.280Z,0
2017-02-03T05:53:00.638Z,0
2017-02-03T05:54:15.029Z,0
2017-02-03T05:55:29.394Z,0
2017-02-03T05:56:43.755Z,0
2017-02-03T05:57:58.102Z,0
2017-02-03T05:59:12.469Z,0
2017-02-03T06:00:26.210Z,0
2017-02-03T06:01:40.565Z,0
2017-02-03T06:02:54.920Z,0
2017-02-03T06:04:09.318Z,0
2017-02-03T06:05:23.687Z,0
2017-02-03T06:06:38.088Z,0
2017-02-03T06:07:52.439Z,0
2017-02-03T06:09:06.803Z,0
2017-02-03T06:10:21.179Z,0
2017-02-03T06:11:35.566Z,0
2017-02-03T06:12:49.916Z,0
2017-02-03T06:14:04.263Z,0
2017-02-03T06:15:18.639Z,0
2017-02-03T06:16:32.432Z,0
2017-02-03T06:17:46.134Z,0
2017-02-03T06:19:00.485Z,0
2017-02-03T06:20:14.202Z,0
2017-02-03T06:21:28.589Z,0
2017-02-03T06:22:42.325Z,0
2017-02-03T06:23:56.687Z,0
2017-02-03T06:25:10.406Z,0
2017-02-03T06:26:24.801Z,0
2017-02-03T06:27:39.179Z,0
2017-02-03T06:28:52.889Z,0
2017-02-03T06:30:07.251Z,0
2017-02-03T06:31:21.581Z,0
2017-02-03T06:32:35.911Z,0
2017-02-03T06:33:50.263Z,0
2017-02-03T06:35:04.686Z,0
2017-02-03T06:36:19.056Z,0
2017-02-03T06:37:33.418Z,0
2017-02-03T06:38:47.808Z,0
2017-02-03T06:40:02.164Z,0
2017-02-03T06:41:16.515Z,0
2017-02-03T06:42:30.223Z,0
2017-02-03T06:43:44.569Z,0
2017-02-03T06:44:58.934Z,0
2017-02-03T06:46:13.307Z,0
2017-02-03T06:47:27.683Z,0
2017-02-03T06:48:42.045Z,0
2017-02-03T06:49:56.400Z,0
2017-02-03T06:51:10.756Z,0
2017-02-03T06:52:25.095Z,0
2017-02-03T06:53:39.465Z,0
2017-02-03T06:54:53.863Z,0
2017-02-03T06:56:08.233Z,0
2017-02-03T06:57:22.645Z,0
2017-02-03T06:58:37.004Z,0
2017-02-03T06:59:51.951Z,0
2017-02-03T07:01:06.438Z,0
2017-02-03T07:02:20.159Z,0
2017-02-03T07:03:34.505Z,0
2017-02-03T07:04:48.266Z,0
2017-02-03T07:06:02.639Z,0
2017-02-03T07:07:17.020Z,0
2017-02-03T07:08:31.390Z,0
2017-02-03T07:09:45.830Z,0
2017-02-03T07:10:59.555Z,0
2017-02-03T07:12:13.278Z,0
2017-02-03T07:13:27.632Z,0
2017-02-03T07:14:42.017Z,0
2017-02-03T07:15:55.733Z,0
2017-02-03T07:17:10.125Z,0
2017-02-03T07:18:24.529Z,0
2017-02-03T07:19:38.937Z,0
2017-02-03T07:20:53.276Z,0
2017-02-03T07:22:07.619Z,0
2017-02-03T07:23:22.002Z,0
2017-02-03T07:24:36.370Z,0
2017-02-03T07:25:50.708Z,0
2017-02-03T07:27:05.065Z,0
2017-02-03T07:28:18.802Z,0
2017-02-03T07:29:33.156Z,0
2017-02-03T07:30:47.510Z,0
2017-02-03T07:32:01.860Z,0
2017-02-03T07:33:16.216Z,0
2017-02-03T07:34:30.615Z,0
2017-02-03T07:35:44.989Z,0
2017-02-03T07:36:59.342Z,0
2017-02-03T07:38:13.692Z,0
2017-02-03T07:39:28.018Z,0
2017-02-03T07:40:42.363Z,0
2017-02-03T07:41:56.098Z,0
2017-02-03T07:43:09.818Z,0
2017-02-03T07:44:24.182Z,0
2017-02-03T07:45:38.550Z,0
2017-02-03T07:46:52.917Z,0
2017-02-03T07:48:07.315Z,0
2017-02-03T07:49:21.672Z,0
2017-02-03T07:50:35.371Z,0
2017-02-03T07:51:49.759Z,0
2017-02-03T07:53:04.118Z,0
2017-02-03T07:54:18.507Z,0
2017-02-03T07:55:32.260Z,0
2017-02-03T07:56:46.024Z,0
2017-02-03T07:58:00.385Z,0
2017-02-03T07:59:14.119Z,0
2017-02-03T08:00:28.469Z,0
2017-02-03T08:01:42.803Z,0
2017-02-03T08:02:57.185Z,0
2017-02-03T08:04:10.316Z,0
2017-02-03T08:05:24.691Z,0
2017-02-03T08:06:39.062Z,0
2017-02-03T08:07:52.149Z,0
2017-02-03T08:09:06.459Z,0
2017-02-03T08:10:20.839Z,0
2017-02-03T08:11:35.179Z,0
2017-02-03T08:12:49.560Z,0
2017-02-03T08:14:03.926Z,0
2017-02-03T08:15:18.313Z,0
2017-02-03T08:16:32.011Z,0
2017-02-03T08:17:46.384Z,0
2017-02-03T08:19:00.715Z,0
2017-02-03T08:20:13.847Z,0
2017-02-03T08:21:28.189Z,0
2017-02-03T08:22:42.584Z,0
2017-02-03T08:23:56.297Z,0
2017-02-03T08:25:10.675Z,0
2017-02-03T08:26:25.033Z,0
2017-02-03T08:27:39.411Z,0
2017-02-03T08:28:53.780Z,0
2017-02-03T08:30:08.165Z,0
2017-02-03T08:31:21.872Z,0
2017-02-03T08:32:36.261Z,0
2017-02-03T08:33:50.659Z,0
2017-02-03T08:35:05.041Z,0
2017-02-03T08:36:18.747Z,0
2017-02-03T08:37:33.120Z,0
2017-02-03T08:38:47.480Z,0
2017-02-03T08:40:01.201Z,0
2017-02-03T08:41:15.585Z,0
2017-02-03T08:42:29.952Z,0
2017-02-03T08:43:44.315Z,0
2017-02-03T08:44:57.998Z,5
2017-02-03T08:46:12.388Z,5
2017-02-03T08:47:26.769Z,5
2017-02-03T08:48:41.120Z,5
2017-02-03T08:49:55.498Z,10
2017-02-03T08:51:09.863Z,10
2017-02-03T08:52:24.189Z,10
2017-02-03T08:53:38.565Z,15
2017-02-03T08:54:52.275Z,15
2017-02-03T08:56:06.641Z,20
2017-02-03T08:57:20.359Z,20
2017-02-03T08:58:34.742Z,20
2017-02-03T08:59:49.094Z,25
2017-02-03T09:01:02.849Z,25
2017-02-03T09:02:17.295Z,25
2017-02-03T09:03:31.695Z,30
2017-02-03T09:04:46.079Z,35
2017-02-03T09:06:00.476Z,35
2017-02-03T09:07:14.834Z,40
2017-02-03T09:08:29.220Z,40
2017-02-03T09:09:42.927Z,45
2017-02-03T09:10:56.660Z,50
2017-02-03T09:12:10.381Z,50
2017-02-03T09:13:24.736Z,50
2017-02-03T09:14:39.103Z,55
2017-02-03T09:15:52.833Z,55
2017-02-03T09:17:06.578Z,60
2017-02-03T09:18:20.941Z,60
2017-02-03T09:19:35.296Z,65
2017-02-03T09:20:49.064Z,70
2017-02-03T09:22:02.144Z,75
2017-02-03T09:23:16.488Z,80
2017-02-03T09:24:30.858Z,85
2017-02-03T09:25:45.177Z,90
2017-02-03T09:26:59.529Z,95
2017-02-03T09:28:13.891Z,105
2017-02-03T09:29:28.271Z,110
2017-02-03T09:30:42.655Z,120
2017-02-03T09:31:57.038Z,125
2017-02-03T09:33:10.753Z,135
2017-02-03T09:34:25.142Z,140
2017-02-03T09:35:39.537Z,150
2017-02-03T09:36:53.907Z,155
2017-02-03T09:38:08.277Z,165
2017-02-03T09:39:22.624Z,175
2017-02-03T09:40:37.014Z,175
2017-02-03T09:41:51.395Z,195
2017-02-03T09:43:05.752Z,205
2017-02-03T09:44:20.107Z,220
2017-02-03T09:45:34.490Z,225
2017-02-03T09:46:48.841Z,230
2017-02-03T09:48:04.084Z,240
2017-02-03T09:49:18.501Z,250
2017-02-03T09:50:32.245Z,260
2017-02-03T09:51:46.599Z,270
2017-02-03T09:53:00.330Z,280
2017-02-03T09:54:14.048Z,285
2017-02-03T09:55:28.440Z,300
2017-02-03T09:56:42.787Z,310
2017-02-03T09:57:57.162Z,315
2017-02-03T09:59:10.868Z,320
2017-02-03T10:00:25.235Z,325
2017-02-03T10:01:39.616Z,330
2017-02-03T10:02:53.353Z,335
2017-02-03T10:04:07.762Z,340
2017-02-03T10:05:22.150Z,345
2017-02-03T10:06:36.527Z,350
2017-02-03T10:07:50.951Z,355
2017-02-03T10:09:04.750Z,360
2017-02-03T10:10:18.497Z,370
2017-02-03T10:11:32.886Z,375
2017-02-03T10:12:47.289Z,375
2017-02-03T10:14:01.668Z,380
2017-02-03T10:15:16.043Z,385
2017-02-03T10:16:30.398Z,385
2017-02-03T10:17:44.816Z,390
2017-02-03T10:18:58.539Z,395
2017-02-03T10:20:12.949Z,405
2017-02-03T10:21:27.318Z,415
2017-02-03T10:22:41.718Z,425
2017-02-03T10:23:55.468Z,435
2017-02-03T10:25:09.185Z,450
2017-02-03T10:26:23.589Z,475
2017-02-03T10:27:37.991Z,485
2017-02-03T10:28:52.411Z,505
2017-02-03T10:30:05.490Z,520
2017-02-03T10:31:19.849Z,540
2017-02-03T10:32:34.189Z,555
2017-02-03T10:33:48.555Z,560
2017-02-03T10:35:02.963Z,570
2017-02-03T10:36:17.307Z,585
2017-02-03T10:37:31.681Z,595
2017-02-03T10:38:46.645Z,610
2017-02-03T10:40:01.024Z,620
2017-02-03T10:41:15.391Z,620
2017-02-03T10:42:29.762Z,630
2017-02-03T10:43:44.120Z,650
2017-02-03T10:44:58.494Z,670
2017-02-03T10:46:12.881Z,700
2017-02-03T10:47:27.275Z,735
2017-02-03T10:48:41.646Z,755
2017-02-03T10:49:56.072Z,770
2017-02-03T10:51:10.431Z,765
2017-02-03T10:52:24.783Z,765
2017-02-03T10:53:39.173Z,770
2017-02-03T10:54:52.935Z,770
2017-02-03T10:56:06.657Z,780
2017-02-03T10:57:19.770Z,795
2017-02-03T10:58:34.844Z,815
2017-02-03T10:59:48.751Z,830
2017-02-03T11:01:02.438Z,850
2017-02-03T11:02:15.576Z,870
2017-02-03T11:03:28.711Z,880
2017-02-03T11:04:41.844Z,895
2017-02-03T11:05:55.182Z,915
2017-02-03T11:07:08.870Z,935
2017-02-03T11:08:21.975Z,965
2017-02-03T11:09:35.074Z,1005
2017-02-03T11:10:48.821Z,1055
2017-02-03T11:12:02.513Z,1100
2017-02-03T11:13:16.209Z,1145
2017-02-03T11:14:29.930Z,1190
2017-02-03T11:15:43.615Z,1205
2017-02-03T11:16:57.295Z,1235
2017-02-03T11:18:11.006Z,1255
2017-02-03T11:27:03.104Z,1165
2017-02-03T11:28:54.333Z,1160
2017-02-03T11:30:08.067Z,1175
2017-02-03T11:31:21.727Z,1195
2017-02-03T11:32:35.401Z,1190
2017-02-03T11:33:49.044Z,1195
2017-02-03T11:35:02.712Z,1205
2017-02-03T11:36:16.393Z,1210
2017-02-03T11:37:30.124Z,1185
2017-02-03T11:38:43.794Z,1180
2017-02-03T11:39:57.457Z,1190
2017-02-03T11:41:10.561Z,1195
2017-02-03T11:42:24.271Z,1225
2017-02-03T11:43:37.957Z,1255
2017-02-03T11:44:51.059Z,1280
2017-02-03T11:46:04.718Z,1315
2017-02-03T11:47:18.419Z,1355
2017-02-03T11:48:32.118Z,1440
2017-02-03T11:49:45.809Z,1495
2017-02-03T11:50:59.536Z,1490
2017-02-03T11:52:12.026Z,1530
2017-02-03T11:53:26.240Z,1595
2017-02-03T11:54:39.928Z,1650
2017-02-03T11:55:53.580Z,1745
2017-02-03T11:57:07.218Z,1790
2017-02-03T11:58:20.902Z,1880
2017-02-03T11:59:34.579Z,1990
2017-02-03T12:00:48.276Z,1965
2017-02-03T12:02:01.411Z,1870
2017-02-03T12:03:14.530Z,1840
2017-02-03T12:04:28.192Z,2305
2017-02-03T12:05:41.888Z,2260
2017-02-03T12:06:55.652Z,2140
2017-02-03T12:08:08.733Z,1920
2017-02-03T12:09:25.398Z,1850
2017-02-03T12:10:38.491Z,1850
2017-02-03T12:11:52.175Z,1860
2017-02-03T12:13:05.309Z,1875
2017-02-03T12:14:19.028Z,1735
2017-02-03T12:15:32.100Z,1675
2017-02-03T12:16:45.765Z,1415
2017-02-03T12:17:59.493Z,1335
2017-02-03T12:19:13.374Z,1285
2017-02-03T12:20:25.900Z,1245
2017-02-03T12:21:39.822Z,1215
2017-02-03T12:22:53.514Z,1195
2017-02-03T12:24:07.173Z,1165
2017-02-03T12:25:20.890Z,1135
2017-02-03T12:26:34.558Z,1110
2017-02-03T12:27:48.278Z,1095
2017-02-03T12:29:01.985Z,1085
2017-02-03T12:30:15.661Z,1085
2017-02-03T12:31:29.341Z,1080
2017-02-03T12:32:42.480Z,1090
2017-02-03T12:33:56.756Z,1105
2017-02-03T12:35:10.563Z,1115
2017-02-03T12:36:23.872Z,1120
2017-02-03T12:37:37.566Z,1125
2017-02-03T12:38:51.332Z,1120
2017-02-03T12:40:04.445Z,1115
2017-02-03T12:41:16.908Z,1110
2017-02-03T12:42:30.622Z,1100
2017-02-03T12:43:44.346Z,1085
2017-02-03T12:44:58.054Z,1065
2017-02-03T12:46:11.158Z,1035
2017-02-03T12:47:24.847Z,1010
2017-02-03T12:48:38.565Z,975
2017-02-03T12:49:52.292Z,950
2017-02-03T12:51:05.963Z,935
2017-02-03T12:52:19.636Z,910
2017-02-03T12:53:33.315Z,890
2017-02-03T12:54:47.718Z,875
2017-02-03T12:56:01.929Z,860
2017-02-03T12:57:15.028Z,845
2017-02-03T12:58:28.677Z,845
2017-02-03T12:59:41.780Z,840
2017-02-03T13:00:54.879Z,835
2017-02-03T13:02:08.557Z,830
2017-02-03T13:03:22.279Z,835
2017-02-03T13:04:35.382Z,845
2017-02-03T13:05:49.053Z,855
2017-02-03T13:07:02.147Z,870
2017-02-03T13:08:15.220Z,895
2017-02-03T13:09:28.871Z,915
2017-02-03T13:10:42.002Z,945
2017-02-03T13:11:55.100Z,975
2017-02-03T13:13:08.809Z,1005
2017-02-03T13:14:21.313Z,1040
2017-02-03T13:15:33.781Z,1080
2017-02-03T13:16:46.260Z,1115
2017-02-03T13:17:59.941Z,1155
2017-02-03T13:19:12.463Z,1195
2017-02-03T13:20:26.164Z,1245
2017-02-03T13:21:39.856Z,1285
2017-02-03T13:22:52.926Z,1330
2017-02-03T13:24:06.675Z,1385
2017-02-03T13:25:19.173Z,1425
2017-02-03T13:26:32.880Z,1465
2017-02-03T13:27:45.931Z,1515
2017-02-03T13:28:59.000Z,1570
2017-02-03T13:30:14.140Z,1640
2017-02-03T13:31:27.823Z,1725
2017-02-03T13:32:41.487Z,1815
2017-02-03T13:33:55.198Z,1900
2017-02-03T13:35:07.725Z,1945
2017-02-03T13:36:20.822Z,2015
2017-02-03T13:37:34.497Z,2105
2017-02-03T13:38:47.594Z,2230
2017-02-03T13:39:59.538Z,2525
2017-02-03T13:41:13.753Z,2485
2017-02-03T13:42:26.854Z,2360
2017-02-03T13:43:39.949Z,2210
2017-02-03T13:44:53.637Z,2150
2017-02-03T13:46:07.331Z,2120
2017-02-03T13:47:20.423Z,2125
2017-02-03T13:48:34.110Z,2100
2017-02-03T13:49:47.815Z,2195
2017-02-03T13:50:59.704Z,2140
2017-02-03T13:52:13.381Z,2130
2017-02-03T13:53:27.100Z,2045
2017-02-03T13:54:40.280Z,1995
2017-02-03T13:55:53.980Z,1975
2017-02-03T13:57:07.081Z,1970
2017-02-03T13:58:20.765Z,1955
2017-02-03T13:59:33.843Z,1935
2017-02-03T14:00:46.347Z,1920
2017-02-03T14:01:58.832Z,1905
2017-02-03T14:03:12.539Z,1885
2017-02-03T14:04:26.240Z,1880
2017-02-03T14:05:39.320Z,1870
2017-02-03T14:06:52.404Z,1865
2017-02-03T14:08:04.886Z,1865
2017-02-03T14:09:18.555Z,1900
2017-02-03T14:10:32.281Z,1920
2017-02-03T14:11:46.009Z,1960
2017-02-03T14:12:59.708Z,1980
2017-02-03T14:14:12.820Z,1985
2017-02-03T14:15:26.513Z,2075
2017-02-03T14:16:40.190Z,2175
2017-02-03T14:17:53.316Z,2195
2017-02-03T14:19:06.389Z,2195
2017-02-03T14:20:19.532Z,2155
2017-02-03T14:21:33.033Z,2170
2017-02-03T14:22:47.583Z,2100
2017-02-03T14:24:01.317Z,2035
2017-02-03T14:25:15.005Z,2065
2017-02-03T14:26:28.676Z,2080
2017-02-03T14:27:42.388Z,2055
2017-02-03T14:28:56.119Z,2025
2017-02-03T14:30:09.254Z,1965
2017-02-03T14:31:22.940Z,2105
2017-02-03T14:32:36.012Z,1985
2017-02-03T14:33:49.707Z,1855
2017-02-03T14:35:03.434Z,1875
2017-02-03T14:36:16.529Z,1820
2017-02-03T14:37:30.213Z,1700
2017-02-03T14:38:43.310Z,1690
2017-02-03T14:39:55.819Z,1665
2017-02-03T14:41:09.490Z,1675
2017-02-03T14:42:23.166Z,1675
2017-02-03T14:43:36.873Z,1645
2017-02-03T14:44:49.974Z,1595
2017-02-03T14:46:03.652Z,1615
2017-02-03T14:47:16.728Z,1650
2017-02-03T14:48:30.415Z,1685
2017-02-03T14:49:43.521Z,1700
2017-02-03T14:50:57.256Z,1745
2017-02-03T14:52:09.748Z,1800
2017-02-03T14:53:23.469Z,1865
2017-02-03T14:54:37.188Z,1925
2017-02-03T14:55:50.905Z,1965
2017-02-03T14:57:04.805Z,1980
2017-02-03T14:58:17.907Z,2060
2017-02-03T14:59:31.645Z,2170
2017-02-03T15:00:46.449Z,2165
2017-02-03T15:01:58.975Z,2130
2017-02-03T15:03:12.670Z,2080
2017-02-03T15:04:26.733Z,2085
2017-02-03T15:05:41.593Z,2095
2017-02-03T15:06:55.317Z,2190
2017-02-03T15:08:09.022Z,2210
2017-02-03T15:09:22.713Z,2170
2017-02-03T15:10:36.406Z,2165
2017-02-03T15:11:50.119Z,2215
2017-02-03T15:13:03.817Z,2165
2017-02-03T15:14:16.330Z,2070
2017-02-03T15:15:30.012Z,2085
2017-02-03T15:16:43.722Z,1990
2017-02-03T15:17:57.439Z,1985
2017-02-03T15:19:10.537Z,1875
2017-02-03T15:20:24.242Z,1770
2017-02-03T15:21:37.919Z,1550
2017-02-03T15:22:51.593Z,1620
2017-02-03T15:24:05.314Z,1860
2017-02-03T15:25:18.429Z,1985
2017-02-03T15:26:31.540Z,2070
2017-02-03T15:27:45.205Z,2595
2017-02-03T15:28:58.878Z,2405
2017-02-03T15:30:11.999Z,1680
2017-02-03T15:31:25.687Z,2370
2017-02-03T15:32:39.391Z,2010
2017-02-03T15:33:53.072Z,2410
2017-02-03T15:35:06.790Z,2980
2017-02-03T15:36:19.862Z,2675
2017-02-03T15:37:32.931Z,2060
2017-02-03T15:38:46.631Z,2855
2017-02-03T15:40:00.337Z,3465
2017-02-03T15:41:13.433Z,2170
2017-02-03T15:42:27.121Z,3300
2017-02-03T15:43:40.829Z,3080
2017-02-03T15:44:54.505Z,2035
2017-02-03T15:46:08.307Z,2765
2017-02-03T15:47:21.414Z,2775
2017-02-03T15:48:35.145Z,2600
2017-02-03T15:49:48.266Z,2700
2017-02-03T15:51:01.968Z,3030
2017-02-03T15:52:15.803Z,2735
2017-02-03T15:53:29.583Z,2315
2017-02-03T15:54:43.270Z,2650
2017-02-03T15:55:56.982Z,3310
2017-02-03T15:57:10.693Z,2015
2017-02-03T15:58:24.361Z,1730
2017-02-03T15:59:38.683Z,1840
2017-02-03T16:00:53.470Z,2100
2017-02-03T16:02:07.185Z,4100
2017-02-03T16:03:20.909Z,4015
2017-02-03T16:04:34.624Z,3795
2017-02-03T16:05:48.317Z,4185
2017-02-03T16:07:02.026Z,4475
2017-02-03T16:08:15.188Z,4995
2017-02-03T16:09:28.908Z,2130
2017-02-03T16:10:42.604Z,4855
2017-02-03T16:11:56.261Z,2810
2017-02-03T16:13:09.974Z,4895
2017-02-03T16:14:23.678Z,5130
2017-02-03T16:15:37.362Z,5145
2017-02-03T16:16:51.108Z,5200
2017-02-03T16:18:04.817Z,5160
2017-02-03T16:19:18.521Z,3795
2017-02-03T16:20:31.631Z,4970
2017-02-03T16:21:45.312Z,1480
2017-02-03T16:22:58.990Z,4280
2017-02-03T16:24:12.076Z,5090
2017-02-03T16:25:24.560Z,2910
2017-02-03T16:26:39.023Z,5210
2017-02-03T16:27:52.704Z,5110
2017-02-03T16:29:06.416Z,5195
2017-02-03T16:30:19.561Z,5200
2017-02-03T16:31:33.255Z,5175
2017-02-03T16:32:48.019Z,1720
2017-02-03T16:34:01.712Z,2680
2017-02-03T16:35:15.382Z,5030
2017-02-03T16:36:29.051Z,3510
2017-02-03T16:37:42.170Z,4480
2017-02-03T16:38:55.879Z,4365
2017-02-03T16:40:08.999Z,1870
2017-02-03T16:41:22.669Z,4550
2017-02-03T16:42:35.966Z,1795
2017-02-03T16:43:49.683Z,1820
2017-02-03T16:45:03.407Z,2740
2017-02-03T16:46:17.115Z,1570
2017-02-03T16:47:30.225Z,3140
2017-02-03T16:48:45.284Z,4245
2017-02-03T16:49:58.968Z,4045
2017-02-03T16:51:12.702Z,1725
2017-02-03T16:52:26.433Z,2105
2017-02-03T16:53:39.543Z,2610
2017-02-03T16:54:53.200Z,2860
2017-02-03T16:56:07.646Z,1940
2017-02-03T16:57:21.464Z,2160
2017-02-03T16:58:35.138Z,4725
2017-02-03T16:59:48.228Z,4830
2017-02-03T17:01:01.904Z,3755
2017-02-03T17:02:15.595Z,4565
2017-02-03T17:03:29.283Z,2615
2017-02-03T17:04:42.971Z,1545
2017-02-03T17:05:56.633Z,1310
2017-02-03T17:07:10.318Z,1035
2017-02-03T17:08:24.013Z,900
2017-02-03T17:09:37.757Z,1000
2017-02-03T17:10:50.878Z,1160
2017-02-03T17:12:04.662Z,1130
2017-02-03T17:13:18.349Z,905
2017-02-03T17:14:32.278Z,735
2017-02-03T17:15:45.671Z,625
2017-02-03T17:16:59.341Z,630
2017-02-03T17:18:13.005Z,775
2017-02-03T17:19:26.693Z,925
2017-02-03T17:20:39.794Z,1010
2017-02-03T17:21:53.454Z,1180
2017-02-03T17:23:07.175Z,1125
2017-02-03T17:24:20.879Z,960
2017-02-03T17:25:35.906Z,855
2017-02-03T17:26:49.577Z,765
2017-02-03T17:28:03.312Z,740
2017-02-03T17:29:16.419Z,735
2017-02-03T17:30:30.107Z,800